Time;durP1;ratioP1;P1;durP2;ratioP2;P2;SDS_P1;SDS_P2;PMS_P1;PMS_P2;Temp;Humidity;BMP_temperature;BMP_pressure;BME280_temperature;BME280_humidity;BME280_pressure;Samples;Min_cycle;Max_cycle;Signal;HPM_P1;HPM_P2
2022/04/21 00:00:05;;;;;;;9.75;7.15;;;10.10;33.60;;;;;;20601;6818;277347;-71
2022/04/21 00:02:32;;;;;;;6.67;6.07;;;10.40;34.30;;;;;;20802;6818;118071;-71
2022/04/21 00:04:57;;;;;;;7.43;5.20;;;10.40;34.30;;;;;;20787;6818;117607;-71
2022/04/21 00:07:24;;;;;;;5.77;5.43;;;10.30;34.30;;;;;;20812;6818;117803;-70
2022/04/21 00:09:48;;;;;;;5.20;4.90;;;10.10;34.30;;;;;;20813;6818;117554;-70
2022/04/21 00:12:14;;;;;;;5.60;5.30;;;9.90;35.40;;;;;;20813;6818;118335;-71
2022/04/21 00:14:40;;;;;;;5.60;5.20;;;9.80;35.50;;;;;;20809;6818;116806;-71
2022/04/21 00:17:08;;;;;;;6.13;5.73;;;9.70;35.80;;;;;;20576;6818;304834;-71
2022/04/21 00:19:31;;;;;;;5.67;5.17;;;9.90;37.10;;;;;;20791;6818;117504;-71
2022/04/21 00:24:42;;;;;;;5.70;5.30;;;10.40;36.10;;;;;;20810;6818;117393;-71
2022/04/21 00:27:07;;;;;;;6.10;5.60;;;10.30;35.40;;;;;;20573;6816;304871;-71
2022/04/21 00:29:33;;;;;;;6.03;5.63;;;10.50;35.80;;;;;;20603;6817;307440;-71
2022/04/21 00:31:58;;;;;;;6.17;5.40;;;10.80;35.40;;;;;;20807;6818;117371;-71
2022/04/21 00:34:24;;;;;;;5.62;5.10;;;10.70;35.00;;;;;;20805;6818;117076;-71
2022/04/21 00:36:51;;;;;;;6.10;5.50;;;10.20;35.40;;;;;;20803;6818;117779;-71
2022/04/21 00:39:17;;;;;;;5.97;5.50;;;10.20;35.50;;;;;;20790;6818;117162;-71
2022/04/21 00:41:42;;;;;;;6.50;5.93;;;10.10;35.70;;;;;;20808;6818;116946;-71
2022/04/21 00:44:09;;;;;;;5.93;5.53;;;9.90;36.80;;;;;;20807;6818;116905;-71
2022/04/21 00:46:38;;;;;;;5.82;5.45;;;9.90;37.10;;;;;;20595;6818;336009;-71
2022/04/21 00:49:04;;;;;;;5.73;5.43;;;10.10;36.90;;;;;;20784;6818;117425;-71
2022/04/21 00:51:29;;;;;;;5.50;5.20;;;10.20;36.40;;;;;;20811;6818;117092;-71
2022/04/21 00:53:55;;;;;;;6.07;5.53;;;9.90;37.60;;;;;;20805;6818;116953;-71
2022/04/21 00:56:21;;;;;;;6.17;5.77;;;9.90;37.60;;;;;;20601;6818;277571;-71
2022/04/21 00:58:47;;;;;;;5.60;5.20;;;10.10;37.40;;;;;;20798;6818;116823;-71
2022/04/21 01:03:38;;;;;;;6.10;5.50;;;10.30;37.30;;;;;;19963;6818;120727;-71
2022/04/21 01:06:04;;;;;;;5.90;5.50;;;10.10;37.10;;;;;;20811;6818;117055;-71
2022/04/21 01:08:29;;;;;;;6.27;5.70;;;10.10;36.80;;;;;;20812;6818;123043;-71
2022/04/21 01:10:55;;;;;;;5.93;5.43;;;9.90;38.00;;;;;;20790;6818;120839;-71
2022/04/21 01:13:21;;;;;;;5.70;5.20;;;9.70;38.70;;;;;;20808;6818;120969;-70
2022/04/21 01:15:47;;;;;;;6.47;6.07;;;9.60;38.30;;;;;;20799;6818;116837;-70
2022/04/21 01:18:13;;;;;;;6.40;5.80;;;9.90;39.60;;;;;;20593;6818;277396;-70
2022/04/21 01:20:39;;;;;;;5.90;5.40;;;9.90;39.60;;;;;;20806;6818;117415;-71
2022/04/21 01:23:04;;;;;;;5.73;5.43;;;10.00;38.10;;;;;;20785;6818;116813;-71
2022/04/21 01:25:40;;;;;;;6.28;5.78;;;9.90;38.90;;;;;;20800;6818;117779;-70
2022/04/21 01:28:06;;;;;;;6.67;6.03;;;10.10;38.50;;;;;;20592;6818;278156;-70
2022/04/21 01:30:32;;;;;;;6.27;5.87;;;10.10;38.50;;;;;;20791;6818;116965;-71
2022/04/21 01:32:59;;;;;;;6.50;5.90;;;10.10;37.90;;;;;;20785;6818;117720;-71
2022/04/21 01:35:24;;;;;;;6.20;5.70;;;10.00;37.90;;;;;;20589;6818;301772;-71
2022/04/21 01:43:21;;;;;;;6.53;6.00;;;9.90;39.10;;;;;;20810;6817;118013;-72
2022/04/21 01:45:46;;;;;;;6.13;5.77;;;9.70;39.30;;;;;;20593;6818;304801;-72
2022/04/21 01:48:12;;;;;;;7.00;6.40;;;10.00;39.20;;;;;;20587;6818;325657;-72
2022/04/21 01:50:37;;;;;;;6.33;5.90;;;10.40;38.80;;;;;;20806;6818;117555;-72
2022/04/21 01:53:03;;;;;;;6.72;6.32;;;10.30;38.30;;;;;;20571;6818;336980;-72
2022/04/21 01:55:29;;;;;;;6.70;6.23;;;10.40;38.50;;;;;;20814;6818;117253;-72
2022/04/21 01:57:55;;;;;;;6.67;6.07;;;10.00;38.10;;;;;;20814;6818;116873;-72
2022/04/21 02:00:20;;;;;;;6.30;5.90;;;10.00;38.10;;;;;;20806;6818;117982;-72
2022/04/21 02:02:46;;;;;;;6.85;6.40;;;9.80;39.40;;;;;;20593;6818;281446;-72
2022/04/21 02:05:11;;;;;;;6.30;5.93;;;9.90;40.30;;;;;;20792;6818;122730;-71
2022/04/21 02:07:40;;;;;;;6.60;6.12;;;9.90;40.50;;;;;;20596;6818;336186;-71
2022/04/21 02:10:06;;;;;;;7.20;6.00;;;10.00;39.20;;;;;;20794;6818;117210;-71
2022/04/21 02:12:31;;;;;;;8.37;6.43;;;10.00;38.90;;;;;;20805;6818;116899;-71
2022/04/21 02:15:01;;;;;;;6.50;6.10;;;9.60;40.10;;;;;;20787;6818;117337;-70
2022/04/21 02:17:27;;;;;;;6.37;5.93;;;9.60;40.20;;;;;;20796;6818;116949;-71
2022/04/21 02:19:53;;;;;;;7.43;6.90;;;9.60;41.30;;;;;;20588;6818;310760;-71
2022/04/21 02:22:19;;;;;;;7.70;7.10;;;9.60;41.30;;;;;;20594;6818;310608;-71
2022/04/21 02:24:44;;;;;;;7.47;6.77;;;10.00;40.00;;;;;;20588;6818;311645;-71
2022/04/21 02:27:10;;;;;;;7.10;6.70;;;10.30;39.40;;;;;;20785;6818;121841;-71
2022/04/21 02:29:35;;;;;;;6.72;6.10;;;10.10;39.00;;;;;;20804;6818;117306;-71
2022/04/21 02:32:01;;;;;;;7.03;6.40;;;9.80;40.20;;;;;;20802;6818;117054;-71
2022/04/21 02:34:28;;;;;;;6.93;6.32;;;9.60;40.50;;;;;;20798;6818;116840;-71
2022/04/21 02:36:52;;;;;;;6.60;6.10;;;9.40;40.80;;;;;;20801;6818;117267;-71
2022/04/21 02:39:17;;;;;;;6.00;5.60;;;9.30;41.20;;;;;;20787;6818;116991;-71
2022/04/21 02:41:44;;;;;;;6.05;5.65;;;9.10;41.30;;;;;;20803;6818;117215;-71
2022/04/21 02:44:09;;;;;;;7.00;6.60;;;9.10;41.30;;;;;;20593;6818;277153;-71
2022/04/21 02:46:36;;;;;;;7.37;6.67;;;9.50;41.50;;;;;;20800;6818;117020;-71
2022/04/21 02:49:01;;;;;;;6.70;6.20;;;9.50;41.50;;;;;;20788;6816;121265;-71
2022/04/21 02:51:27;;;;;;;6.00;5.60;;;9.30;41.60;;;;;;20808;6817;116966;-71
2022/04/21 02:59:25;;;;;;;6.95;6.45;;;10.10;40.50;;;;;;20593;6818;279285;-72
2022/04/21 03:01:50;;;;;;;7.10;6.60;;;10.10;40.50;;;;;;20590;6818;278025;-72
2022/04/21 03:04:17;;;;;;;6.85;6.35;;;10.70;39.60;;;;;;20593;6818;306820;-72
2022/04/21 03:06:42;;;;;;;6.57;6.17;;;10.60;39.40;;;;;;20802;6818;117407;-72
2022/04/21 03:09:08;;;;;;;6.90;6.40;;;10.50;39.30;;;;;;20577;6818;288861;-72
2022/04/21 03:11:33;;;;;;;6.80;6.23;;;10.50;38.30;;;;;;20809;6818;117738;-71
2022/04/21 03:13:59;;;;;;;6.60;6.20;;;10.30;38.30;;;;;;20588;6818;335228;-72
2022/04/21 03:16:25;;;;;;;6.93;6.30;;;10.00;38.40;;;;;;20808;6818;124342;-72
2022/04/21 03:18:51;;;;;;;7.00;6.30;;;10.00;38.40;;;;;;20802;6818;117417;-72
2022/04/21 03:24:21;;;;;;;6.37;5.97;;;9.70;40.90;;;;;;20805;6818;116977;-70
2022/04/21 03:26:50;;;;;;;6.17;5.63;;;9.60;40.90;;;;;;20803;6818;117000;-72
2022/04/21 03:29:16;;;;;;;7.57;7.07;;;9.30;41.20;;;;;;20776;6818;117575;-71
2022/04/21 03:31:43;;;;;;;8.13;7.53;;;9.10;41.50;;;;;;20806;6818;117026;-71
2022/04/21 03:34:07;;;;;;;7.37;6.97;;;9.00;41.70;;;;;;20589;6818;306421;-72
2022/04/21 03:36:33;;;;;;;6.53;6.03;;;9.20;42.20;;;;;;20810;6818;120599;-72
2022/04/21 03:38:59;;;;;;;6.97;6.47;;;9.10;41.80;;;;;;20782;6818;120882;-72
2022/04/21 03:41:25;;;;;;;7.00;6.40;;;9.10;41.80;;;;;;20809;6818;117084;-72
2022/04/21 03:43:51;;;;;;;7.15;6.72;;;8.90;41.90;;;;;;20598;6818;277653;-72
2022/04/21 03:46:17;;;;;;;7.47;6.87;;;9.20;42.20;;;;;;20590;6818;307604;-72
2022/04/21 03:48:42;;;;;;;7.07;6.57;;;9.50;41.60;;;;;;20803;6818;116962;-72
2022/04/21 03:51:10;;;;;;;6.50;6.00;;;9.50;41.30;;;;;;20785;6818;123657;-72
2022/04/21 03:53:34;;;;;;;7.40;6.87;;;9.20;41.50;;;;;;20590;6818;340193;-72
2022/04/21 03:55:59;;;;;;;7.18;6.60;;;9.40;41.90;;;;;;20596;6818;282632;-72
2022/04/21 03:58:25;;;;;;;6.70;6.20;;;9.70;40.60;;;;;;20800;6818;117269;-72
2022/04/21 04:00:50;;;;;;;6.87;6.47;;;9.60;40.40;;;;;;20801;6816;116909;-72
2022/04/21 04:03:16;;;;;;;6.22;5.90;;;9.30;40.80;;;;;;20785;6817;122480;-72
2022/04/21 04:05:41;;;;;;;6.70;6.30;;;9.10;41.20;;;;;;20593;6817;277853;-72
2022/04/21 04:10:52;;;;;;;6.97;6.57;;;9.50;41.30;;;;;;19757;6818;336273;-72
2022/04/21 04:13:21;;;;;;;6.80;6.40;;;9.80;40.50;;;;;;20786;6818;117615;-72
2022/04/21 04:15:49;;;;;;;6.10;5.80;;;9.60;40.40;;;;;;20798;6818;116942;-72
2022/04/21 04:18:12;;;;;;;7.40;6.90;;;9.20;40.90;;;;;;20575;6818;278932;-72
2022/04/21 04:20:38;;;;;;;7.03;6.37;;;9.20;41.30;;;;;;20835;6818;116684;-72
2022/04/21 04:23:04;;;;;;;7.23;6.73;;;9.20;41.30;;;;;;20574;6818;307094;-72
2022/04/21 04:25:29;;;;;;;8.70;8.00;;;9.30;41.40;;;;;;20600;6818;308000;-72
2022/04/21 04:27:55;;;;;;;7.50;6.90;;;9.60;40.90;;;;;;20816;6818;118759;-72
2022/04/21 04:30:20;;;;;;;7.20;6.70;;;9.50;40.80;;;;;;20810;6818;116749;-72
2022/04/21 04:32:47;;;;;;;6.83;6.37;;;8.90;41.50;;;;;;20802;6818;116905;-71
2022/04/21 04:35:12;;;;;;;7.33;6.83;;;8.90;41.60;;;;;;20790;6818;117270;-72
2022/04/21 04:37:39;;;;;;;8.00;7.50;;;8.70;41.80;;;;;;20603;6818;302806;-72
2022/04/21 04:40:05;;;;;;;8.70;8.10;;;9.20;41.70;;;;;;20597;6818;282497;-72
2022/04/21 04:42:31;;;;;;;8.55;8.05;;;9.20;41.60;;;;;;20537;6833;341593;-72
2022/04/21 04:47:43;;;;;;;8.50;7.90;;;9.30;41.50;;;;;;20596;6818;340833;-72
2022/04/21 04:50:11;;;;;;;8.60;8.07;;;9.30;41.40;;;;;;20804;6818;117755;-72
2022/04/21 04:52:41;;;;;;;8.83;8.23;;;9.20;41.30;;;;;;20659;6818;276640;-72
2022/04/21 04:55:07;;;;;;;9.68;8.98;;;9.20;41.60;;;;;;20646;6818;306654;-72
2022/04/21 04:57:33;;;;;;;9.00;8.40;;;9.50;41.40;;;;;;20858;6818;116199;-72
2022/04/21 04:59:58;;;;;;;8.50;7.97;;;9.30;41.30;;;;;;20650;6818;278429;-72
2022/04/21 05:02:24;;;;;;;8.90;8.30;;;9.30;41.80;;;;;;20655;6818;310902;-71
2022/04/21 05:04:50;;;;;;;8.27;7.67;;;9.60;41.50;;;;;;20854;6818;115709;-71
2022/04/21 05:07:19;;;;;;;7.77;7.27;;;9.40;41.40;;;;;;20818;6818;122899;-71
2022/04/21 05:09:44;;;;;;;8.40;7.70;;;9.10;41.70;;;;;;20815;6818;117664;-71
2022/04/21 05:12:10;;;;;;;8.00;7.50;;;8.90;42.10;;;;;;20812;6816;116486;-72
2022/04/21 05:14:49;;;;;;;8.70;8.00;;;8.70;42.40;;;;;;20585;6817;333748;-71
2022/04/21 05:17:15;;;;;;;8.37;7.67;;;9.00;42.60;;;;;;20025;6818;118328;-73
2022/04/21 05:19:41;;;;;;;8.52;7.90;;;9.00;42.60;;;;;;20598;6818;297715;-72
2022/04/21 05:22:07;;;;;;;8.70;8.00;;;9.20;43.00;;;;;;20803;6818;117018;-72
2022/04/21 05:24:33;;;;;;;8.50;7.90;;;9.30;42.70;;;;;;20794;6818;116922;-73
2022/04/21 05:26:58;;;;;;;9.13;8.43;;;9.10;42.80;;;;;;20731;6832;117902;-73
2022/04/21 05:32:10;;;;;;;8.60;8.00;;;8.90;43.20;;;;;;20783;6826;116778;-72
2022/04/21 05:34:37;;;;;;;8.13;7.50;;;8.90;43.20;;;;;;20779;6826;117261;-72
2022/04/21 05:37:03;;;;;;;10.87;10.03;;;8.90;43.30;;;;;;20545;6826;320897;-72
2022/04/21 05:39:29;;;;;;;11.37;10.60;;;9.80;43.40;;;;;;20550;6826;310335;-73
2022/04/21 05:41:55;;;;;;;11.63;10.63;;;9.80;43.30;;;;;;20562;6826;306724;-72
2022/04/21 05:44:21;;;;;;;11.07;10.32;;;10.20;41.50;;;;;;20571;6826;309255;-70
2022/04/21 05:46:46;;;;;;;11.20;10.40;;;10.40;40.80;;;;;;20563;6826;306085;-70
2022/04/21 05:49:12;;;;;;;11.10;10.00;;;10.60;40.50;;;;;;20523;6833;307399;-70
2022/04/21 05:51:38;;;;;;;11.03;10.20;;;10.70;40.30;;;;;;20569;6826;281539;-70
2022/04/21 05:54:03;;;;;;;12.10;10.90;;;10.90;40.20;;;;;;20562;6826;306225;-70
2022/04/21 05:56:29;;;;;;;10.83;10.03;;;11.00;39.80;;;;;;20773;6826;117395;-70
2022/04/21 05:58:54;;;;;;;7.30;6.70;;;10.80;39.80;;;;;;20780;6818;117524;-72
2022/04/21 06:01:20;;;;;;;6.70;6.30;;;10.40;40.30;;;;;;20591;6818;311087;-71
2022/04/21 06:03:45;;;;;;;6.43;5.93;;;10.50;40.50;;;;;;20801;6818;117043;-71
2022/04/21 06:06:11;;;;;;;6.80;5.83;;;10.40;40.50;;;;;;20805;6818;117367;-71
2022/04/21 06:08:37;;;;;;;5.80;5.50;;;10.10;40.70;;;;;;20798;6818;116917;-71
2022/04/21 06:11:02;;;;;;;6.27;5.77;;;9.90;42.00;;;;;;20782;6818;123480;-72
2022/04/21 06:13:28;;;;;;;6.95;6.35;;;9.80;42.30;;;;;;20595;6818;281909;-72
2022/04/21 06:15:54;;;;;;;6.83;6.33;;;10.00;41.60;;;;;;20584;6818;307441;-72
2022/04/21 06:18:20;;;;;;;6.75;6.35;;;10.30;41.10;;;;;;20591;6818;337600;-72
2022/04/21 06:20:46;;;;;;;7.03;6.53;;;10.70;40.60;;;;;;20594;6818;281585;-71
2022/04/21 06:23:11;;;;;;;7.03;6.43;;;10.90;40.20;;;;;;20573;6816;336198;-72
2022/04/21 06:25:37;;;;;;;7.60;6.90;;;11.10;40.20;;;;;;20594;6817;307111;-72
2022/04/21 06:28:03;;;;;;;8.47;7.87;;;11.30;39.80;;;;;;20819;6817;116890;-72
2022/04/21 06:30:28;;;;;;;7.43;6.83;;;11.20;40.50;;;;;;20593;6818;336131;-72
2022/04/21 06:32:54;;;;;;;7.03;6.17;;;11.20;40.30;;;;;;20794;6818;127061;-72
2022/04/21 06:35:20;;;;;;;7.32;6.62;;;11.20;40.40;;;;;;20800;6818;121124;-71
2022/04/21 06:37:46;;;;;;;7.03;6.53;;;11.00;41.10;;;;;;20807;6818;117665;-72
2022/04/21 06:40:11;;;;;;;6.87;6.27;;;10.90;40.80;;;;;;20803;6818;117346;-72
2022/04/21 06:42:37;;;;;;;7.28;6.78;;;10.90;41.10;;;;;;20804;6818;121698;-72
2022/04/21 06:48:02;;;;;;;8.17;7.50;;;11.50;41.30;;;;;;20599;6818;281398;-72
2022/04/21 06:50:32;;;;;;;7.80;7.10;;;12.20;39.90;;;;;;20592;6818;306455;-72
2022/04/21 06:52:57;;;;;;;11.70;10.70;;;12.20;39.90;;;;;;20568;6818;290500;-72
2022/04/21 06:55:23;;;;;;;10.57;9.77;;;12.70;38.30;;;;;;20806;6818;117642;-72
2022/04/21 06:57:49;;;;;;;10.88;9.98;;;12.90;38.10;;;;;;20806;6818;117784;-71
2022/04/21 07:00:14;;;;;;;10.47;9.73;;;12.80;38.20;;;;;;20806;6818;117212;-72
2022/04/21 07:02:41;;;;;;;11.40;10.43;;;13.20;37.80;;;;;;20589;6818;336261;-72
2022/04/21 07:05:06;;;;;;;11.43;10.48;;;13.10;37.70;;;;;;20576;6818;310550;-72
2022/04/21 07:07:32;;;;;;;10.87;9.73;;;13.80;36.80;;;;;;20803;6818;117737;-72
2022/04/21 07:09:57;;;;;;;11.73;10.90;;;13.90;36.50;;;;;;20595;6818;307382;-72
2022/04/21 07:12:26;;;;;;;10.20;9.40;;;14.20;35.70;;;;;;20815;6818;117271;-72
2022/04/21 07:14:53;;;;;;;10.40;9.60;;;14.30;36.00;;;;;;20782;6818;117132;-71
2022/04/21 07:17:20;;;;;;;10.60;9.70;;;14.10;36.40;;;;;;20808;6818;117270;-72
2022/04/21 07:19:45;;;;;;;10.67;10.03;;;14.00;36.30;;;;;;20601;6818;308037;-72
2022/04/21 07:22:11;;;;;;;10.30;9.52;;;14.40;35.40;;;;;;20604;6818;281901;-72
2022/04/21 07:24:36;;;;;;;10.23;9.67;;;14.80;34.70;;;;;;20801;6818;123015;-72
2022/04/21 07:27:02;;;;;;;10.52;9.93;;;14.80;34.80;;;;;;20586;6818;307256;-72
2022/04/21 07:29:27;;;;;;;10.93;10.13;;;15.10;33.80;;;;;;20594;6818;306911;-72
2022/04/21 07:31:53;;;;;;;9.90;9.30;;;15.40;33.00;;;;;;20811;6818;123236;-72
2022/04/21 07:34:18;;;;;;;10.02;9.43;;;15.40;33.40;;;;;;20802;6818;117055;-72
2022/04/21 07:36:46;;;;;;;9.75;9.05;;;15.30;33.90;;;;;;20812;6816;117652;-72
2022/04/21 07:39:10;;;;;;;10.73;10.03;;;15.30;34.40;;;;;;20574;6817;299065;-72
2022/04/21 07:41:37;;;;;;;9.67;9.17;;;15.60;32.90;;;;;;20811;6818;117830;-72
2022/04/21 07:44:01;;;;;;;11.50;10.60;;;15.70;32.80;;;;;;20596;6818;277605;-72
2022/04/21 07:46:26;;;;;;;10.60;9.90;;;15.80;32.40;;;;;;20577;6818;306336;-71
2022/04/21 07:51:37;;;;;;;10.03;9.43;;;16.30;32.60;;;;;;20807;6818;117073;-72
2022/04/21 07:54:03;;;;;;;10.95;10.15;;;16.10;32.80;;;;;;20594;6818;336269;-72
2022/04/21 07:56:28;;;;;;;11.17;10.47;;;16.20;31.80;;;;;;20596;6818;277368;-71
2022/04/21 07:58:55;;;;;;;10.80;10.20;;;16.90;30.80;;;;;;20586;6818;297277;-72
2022/04/21 08:01:21;;;;;;;10.53;9.83;;;16.80;31.30;;;;;;20808;6818;117694;-72
2022/04/21 08:03:46;;;;;;;10.27;9.67;;;16.80;31.40;;;;;;20809;6818;117347;-71
2022/04/21 08:06:12;;;;;;;11.10;10.20;;;16.60;31.80;;;;;;20595;6818;308731;-71
2022/04/21 08:08:39;;;;;;;10.65;9.93;;;16.70;31.00;;;;;;20595;6818;307573;-71
2022/04/21 08:11:03;;;;;;;11.10;10.20;;;17.00;31.50;;;;;;20584;6818;343597;-72
2022/04/21 08:13:28;;;;;;;11.35;10.65;;;17.30;31.40;;;;;;20600;6818;307253;-71
2022/04/21 08:15:54;;;;;;;11.23;10.52;;;17.50;30.80;;;;;;20599;6818;332834;-71
2022/04/21 08:18:19;;;;;;;12.00;11.20;;;17.70;30.40;;;;;;20599;6818;278260;-71
2022/04/21 08:20:46;;;;;;;11.43;10.73;;;17.80;29.80;;;;;;20809;6818;117511;-71
2022/04/21 08:23:10;;;;;;;11.85;11.07;;;17.70;30.30;;;;;;20569;6818;309544;-71
2022/04/21 08:33:53;;;;;;;10.70;10.00;;;18.10;30.20;;;;;;20809;6818;117393;-72
2022/04/21 08:36:19;;;;;;;11.80;10.90;;;18.00;30.00;;;;;;20604;6818;291737;-71
2022/04/21 08:38:45;;;;;;;11.37;10.60;;;18.00;30.20;;;;;;20806;6818;117926;-71
2022/04/21 08:41:14;;;;;;;10.50;9.80;;;18.00;30.20;;;;;;20790;6818;117606;-72
2022/04/21 08:43:36;;;;;;;11.10;10.40;;;17.80;30.10;;;;;;20585;6818;311171;-71
2022/04/21 08:46:02;;;;;;;11.57;10.88;;;17.90;30.30;;;;;;20595;6816;310948;-72
2022/04/21 08:48:27;;;;;;;12.00;11.23;;;18.10;30.10;;;;;;20601;6817;306826;-71
2022/04/21 08:50:53;;;;;;;12.63;11.83;;;18.40;29.70;;;;;;20585;6817;293683;-71
2022/04/21 08:53:19;;;;;;;11.47;10.70;;;18.50;29.70;;;;;;20792;6818;117344;-72
2022/04/21 08:55:45;;;;;;;12.20;11.35;;;18.60;30.00;;;;;;20586;6818;339873;-71
2022/04/21 08:58:11;;;;;;;12.60;11.57;;;18.60;29.60;;;;;;20595;6818;286263;-71
2022/04/21 09:00:37;;;;;;;11.12;10.23;;;18.70;29.50;;;;;;20814;6818;117333;-71
2022/04/21 09:03:03;;;;;;;12.37;11.48;;;18.70;29.80;;;;;;20583;6818;307274;-72
2022/04/21 09:05:29;;;;;;;12.67;11.77;;;18.80;29.20;;;;;;20601;6818;306992;-72
2022/04/21 09:07:54;;;;;;;10.47;9.87;;;19.00;29.70;;;;;;20809;6818;118871;-71
2022/04/21 09:10:19;;;;;;;11.20;10.35;;;19.00;29.80;;;;;;20593;6818;311083;-71
2022/04/21 09:12:45;;;;;;;11.30;10.60;;;19.20;29.90;;;;;;20806;6818;117287;-71
2022/04/21 09:15:14;;;;;;;12.23;11.43;;;19.30;28.90;;;;;;20577;6818;306448;-72
2022/04/21 09:17:40;;;;;;;11.43;10.63;;;19.30;28.90;;;;;;20801;6818;117951;-71
2022/04/21 09:20:06;;;;;;;11.10;10.27;;;19.30;29.10;;;;;;20781;6818;117482;-72
2022/04/21 09:22:32;;;;;;;12.15;11.15;;;19.20;29.50;;;;;;20588;6818;306819;-71
2022/04/21 09:24:57;;;;;;;10.77;9.87;;;19.30;28.90;;;;;;20788;6818;117623;-72
2022/04/21 09:27:23;;;;;;;10.90;10.10;;;19.50;28.30;;;;;;20590;6818;301200;-72
2022/04/21 09:29:50;;;;;;;9.73;9.23;;;19.50;28.30;;;;;;20809;6818;120605;-71
2022/04/21 09:32:15;;;;;;;11.33;10.43;;;19.50;28.50;;;;;;20593;6818;306780;-72
2022/04/21 09:34:40;;;;;;;11.63;10.83;;;19.60;29.00;;;;;;20587;6818;308042;-71
2022/04/21 09:37:06;;;;;;;9.93;9.43;;;20.00;27.60;;;;;;20780;6818;121259;-72
2022/04/21 09:39:31;;;;;;;9.57;8.97;;;19.90;28.10;;;;;;20812;6818;117098;-71
2022/04/21 09:41:57;;;;;;;8.70;8.20;;;19.80;28.50;;;;;;20813;6818;117131;-71
2022/04/21 09:47:19;;;;;;;9.40;8.80;;;19.50;28.70;;;;;;20793;6818;117160;-71
2022/04/21 09:49:45;;;;;;;9.43;8.67;;;19.30;28.80;;;;;;20805;6818;122728;-72
2022/04/21 09:52:11;;;;;;;10.02;9.32;;;19.30;28.80;;;;;;20594;6818;336203;-71
2022/04/21 09:54:36;;;;;;;9.20;8.67;;;19.50;27.90;;;;;;20806;6818;120994;-71
2022/04/21 09:57:01;;;;;;;9.25;8.60;;;19.60;28.20;;;;;;20799;6818;122373;-72
2022/04/21 09:59:27;;;;;;;9.13;8.53;;;19.60;28.30;;;;;;20813;6816;117246;-71
2022/04/21 10:01:53;;;;;;;8.77;8.03;;;19.50;28.20;;;;;;20603;6817;277240;-71
2022/04/21 10:04:19;;;;;;;8.60;8.10;;;19.80;27.90;;;;;;20817;6817;117058;-71
2022/04/21 10:06:44;;;;;;;8.60;8.07;;;19.70;27.80;;;;;;20806;6818;117408;-71
2022/04/21 10:09:12;;;;;;;8.87;8.07;;;19.70;27.90;;;;;;20781;6818;143719;-71
2022/04/21 10:11:42;;;;;;;8.95;8.35;;;19.60;28.00;;;;;;20601;6818;276841;-71
2022/04/21 10:14:06;;;;;;;9.00;8.50;;;19.80;27.10;;;;;;20601;6818;307253;-71
2022/04/21 10:16:31;;;;;;;8.50;7.87;;;20.10;27.10;;;;;;20805;6818;117152;-71
2022/04/21 10:18:57;;;;;;;12.50;8.03;;;20.10;27.60;;;;;;20802;6818;117660;-72
2022/04/21 10:21:25;;;;;;;8.30;7.80;;;20.00;27.60;;;;;;20800;6818;117765;-71
2022/04/21 10:23:51;;;;;;;8.50;7.90;;;20.00;27.90;;;;;;20584;6818;311956;-71
2022/04/21 10:26:16;;;;;;;8.23;7.73;;;20.30;28.10;;;;;;20803;6818;116994;-71
2022/04/21 10:28:42;;;;;;;7.53;7.03;;;20.40;27.80;;;;;;20733;6818;117010;-71
2022/04/21 10:31:31;;;;;;;8.97;8.07;;;20.30;27.60;;;;;;20572;6818;277882;-71
2022/04/21 10:33:56;;;;;;;7.70;7.20;;;20.50;26.90;;;;;;20803;6818;117754;-71
2022/04/21 10:36:31;;;;;;;8.43;7.90;;;20.40;27.40;;;;;;20555;6818;336325;-70
2022/04/21 10:39:16;;;;;;;8.27;7.67;;;20.50;27.60;;;;;;20713;6818;122345;-72
2022/04/21 10:41:42;;;;;;;7.53;7.03;;;20.60;27.30;;;;;;20802;6818;117280;-71
2022/04/21 10:44:14;;;;;;;6.77;6.37;;;20.30;27.30;;;;;;20807;6818;117758;-71
2022/04/21 10:46:40;;;;;;;7.43;7.00;;;20.30;27.60;;;;;;20590;6818;326442;-72
2022/04/21 10:49:06;;;;;;;7.57;6.93;;;20.30;27.60;;;;;;20766;6818;120814;-72
2022/04/21 10:57:16;;;;;;;7.30;6.90;;;20.20;27.90;;;;;;20586;6818;278184;-72
2022/04/21 10:59:49;;;;;;;6.97;6.47;;;20.30;27.30;;;;;;20596;6818;331979;-72
2022/04/21 11:02:14;;;;;;;7.23;6.73;;;20.60;27.40;;;;;;20792;6818;117198;-72
2022/04/21 11:04:40;;;;;;;7.07;6.57;;;20.80;27.30;;;;;;20809;6818;117183;-71
2022/04/21 11:07:05;;;;;;;7.03;6.63;;;20.60;27.20;;;;;;20780;6818;116979;-72
2022/04/21 11:09:38;;;;;;;6.80;6.40;;;20.40;27.30;;;;;;20545;6816;306883;-72
2022/04/21 11:12:04;;;;;;;7.03;6.63;;;20.50;27.00;;;;;;20809;6817;117079;-72
2022/04/21 11:14:31;;;;;;;6.50;6.20;;;20.50;27.00;;;;;;20559;6817;336194;-71
2022/04/21 11:16:55;;;;;;;7.07;6.57;;;20.50;26.90;;;;;;20786;6818;117116;-72
2022/04/21 11:19:34;;;;;;;6.50;6.10;;;20.50;27.20;;;;;;20586;6818;277676;-70
2022/04/21 11:22:03;;;;;;;6.30;6.00;;;20.70;27.50;;;;;;20594;6818;311285;-71
2022/04/21 11:24:29;;;;;;;6.18;5.87;;;20.90;26.70;;;;;;20591;6818;306324;-71
2022/04/21 11:26:57;;;;;;;6.57;6.00;;;21.10;27.20;;;;;;20715;6818;117031;-72
2022/04/21 11:29:23;;;;;;;6.50;6.10;;;21.00;27.10;;;;;;20590;6818;307064;-71
2022/04/21 11:31:49;;;;;;;6.10;5.80;;;21.00;27.10;;;;;;20604;6818;276842;-71
2022/04/21 11:34:22;;;;;;;5.73;5.30;;;21.10;26.60;;;;;;20788;6818;117644;-71
2022/04/21 11:36:47;;;;;;;5.07;4.70;;;21.00;27.00;;;;;;20801;6818;117206;-71
2022/04/21 11:39:12;;;;;;;6.80;6.40;;;20.80;27.30;;;;;;20575;6818;340655;-72
2022/04/21 11:41:41;;;;;;;6.23;5.93;;;20.80;27.20;;;;;;20798;6818;118074;-71
2022/04/21 11:44:07;;;;;;;6.93;5.13;;;20.70;27.20;;;;;;20804;6818;117123;-72
2022/04/21 11:46:32;;;;;;;5.60;5.20;;;20.50;27.50;;;;;;20803;6818;117195;-72
2022/04/21 11:49:00;;;;;;;6.17;5.70;;;20.30;27.90;;;;;;20771;6818;117277;-73
2022/04/21 11:51:25;;;;;;;6.83;6.43;;;20.20;27.90;;;;;;20796;6818;121425;-72
2022/04/21 11:53:49;;;;;;;5.70;5.20;;;20.10;27.80;;;;;;20802;6818;117016;-71
2022/04/21 11:56:14;;;;;;;5.77;5.47;;;20.00;28.00;;;;;;20805;6818;117635;-71
2022/04/21 11:58:41;;;;;;;5.70;5.40;;;19.90;28.00;;;;;;20805;6818;117101;-71
2022/04/21 12:06:38;;;;;;;5.40;5.10;;;20.40;28.20;;;;;;20810;6818;116956;-71
2022/04/21 12:09:03;;;;;;;6.10;5.80;;;20.30;28.10;;;;;;20551;6818;303302;-72
2022/04/21 12:11:28;;;;;;;6.20;5.90;;;20.50;28.10;;;;;;20810;6818;121278;-72
2022/04/21 12:13:54;;;;;;;6.30;5.90;;;20.40;28.00;;;;;;20599;6818;277236;-72
2022/04/21 12:16:47;;;;;;;7.60;7.17;;;20.40;27.90;;;;;;20604;6818;311554;-72
2022/04/21 12:19:12;;;;;;;5.70;5.40;;;20.40;27.80;;;;;;20782;6818;124450;-72
2022/04/21 12:21:38;;;;;;;5.90;5.60;;;20.30;27.70;;;;;;20582;6816;306302;-72
2022/04/21 12:24:17;;;;;;;5.97;5.68;;;20.40;27.90;;;;;;20602;6817;307037;-72
2022/04/21 12:26:53;;;;;;;6.17;5.77;;;20.50;27.70;;;;;;20810;6817;116903;-72
2022/04/21 12:29:18;;;;;;;6.32;5.87;;;20.40;27.80;;;;;;20573;6818;336177;-72
2022/04/21 12:31:54;;;;;;;7.28;6.78;;;20.50;28.40;;;;;;20594;6818;277424;-72
2022/04/21 12:34:24;;;;;;;6.17;5.67;;;20.60;27.80;;;;;;20806;6818;117019;-72
2022/04/21 12:36:55;;;;;;;5.95;5.50;;;20.60;27.80;;;;;;20567;6818;306741;-72
2022/04/21 12:39:21;;;;;;;5.70;5.40;;;20.60;28.50;;;;;;20759;6818;117151;-71
2022/04/21 12:41:46;;;;;;;5.80;5.40;;;20.50;28.60;;;;;;20596;6818;283166;-71
2022/04/21 12:44:13;;;;;;;6.30;5.80;;;20.80;27.80;;;;;;20600;6818;277567;-71
2022/04/21 12:46:40;;;;;;;5.50;5.10;;;20.80;27.80;;;;;;20587;6818;311585;-71
2022/04/21 12:49:04;;;;;;;5.70;5.40;;;20.90;28.00;;;;;;20574;6818;289381;-72
2022/04/21 12:51:29;;;;;;;5.53;5.23;;;21.00;28.50;;;;;;20591;6818;306603;-72
2022/04/21 12:53:58;;;;;;;4.87;4.67;;;21.20;27.90;;;;;;20807;6818;118372;-72
2022/04/21 12:56:31;;;;;;;4.70;4.43;;;21.00;27.90;;;;;;20591;6818;311675;-72
2022/04/21 12:58:56;;;;;;;4.80;4.60;;;21.00;27.60;;;;;;20568;6818;307230;-73
2022/04/21 13:01:22;;;;;;;5.22;4.87;;;21.00;27.60;;;;;;20810;6818;117155;-72
2022/04/21 13:03:48;;;;;;;5.30;4.90;;;20.90;27.50;;;;;;20809;6818;117196;-71
2022/04/21 13:06:13;;;;;;;4.57;4.30;;;20.70;27.90;;;;;;20808;6818;117440;-71
2022/04/21 13:08:39;;;;;;;5.72;5.12;;;20.40;28.00;;;;;;20556;6818;277687;-71
2022/04/21 13:11:06;;;;;;;5.20;4.80;;;20.30;28.60;;;;;;20796;6818;117122;-71
2022/04/21 13:13:31;;;;;;;4.72;4.53;;;20.30;28.00;;;;;;20606;6818;306231;-71
2022/04/21 13:15:57;;;;;;;4.80;4.60;;;20.30;28.10;;;;;;20809;6818;117179;-71
2022/04/21 13:18:23;;;;;;;5.10;4.70;;;20.30;28.50;;;;;;20589;6818;307144;-71
2022/04/21 13:23:34;;;;;;;4.70;4.40;;;20.30;28.70;;;;;;20594;6818;306576;-71
2022/04/21 13:26:00;;;;;;;5.70;4.20;;;20.50;29.30;;;;;;20808;6818;117555;-71
2022/04/21 13:28:26;;;;;;;3.90;3.70;;;20.50;29.20;;;;;;20800;6818;117070;-71